This is the latest recevied weather packets stored in our database for station/object KO4APQ. If no packets are shown the sender has not sent any weather packets the latest 10 day(s).
| Time | Temp. | Humidity | Pressure | Rain* | Wind** | Luminosity | Snow |
|---|---|---|---|---|---|---|---|
| 1777650772 | 16.67° C | 48% | 1015.8 hPa | 0 mm | - | 443 W/m² | - |
| 1777650469 | 16.67° C | 47% | 1015.9 hPa | 0 mm | - | 691 W/m² | - |
| 1777650166 | 16.67° C | 46% | 1016.2 hPa | 0 mm | - | 516 W/m² | - |
| 1777649863 | 16.67° C | 47% | 1016.3 hPa | 0 mm | - | 720 W/m² | - |
| 1777649562 | 16.67° C | 50% | 1016.1 hPa | 0 mm | - | 826 W/m² | - |
| 1777649257 | 16.67° C | 48% | 1016.3 hPa | 0 mm | - | 771 W/m² | - |
| 1777648954 | 16.67° C | 50% | 1016.6 hPa | 0 mm | - | 562 W/m² | - |
| 1777648651 | 16.11° C | 50% | 1016.5 hPa | 0 mm | - | 573 W/m² | - |
| 1777648347 | 16.11° C | 52% | 1016.2 hPa | 0 mm | - | 533 W/m² | - |
| 1777648044 | 16.11° C | 50% | 1016.3 hPa | 0 mm | - | 593 W/m² | - |
| 1777647740 | 16.67° C | 51% | 1016.3 hPa | 0 mm | - | 683 W/m² | - |
| 1777647436 | 16.67° C | 50% | 1016.5 hPa | 0 mm | - | 797 W/m² | - |
| 1777647134 | 16.11° C | 53% | 1016.3 hPa | 0 mm | - | 764 W/m² | - |
| 1777646830 | 15.56° C | 52% | 1016.1 hPa | 0 mm | - | 595 W/m² | - |
| 1777646221 | 16.11° C | 52% | 1015.9 hPa | 0 mm | - | 769 W/m² | - |
| 1777645920 | 16.11° C | 52% | 1015.9 hPa | 0 mm | - | 726 W/m² | - |
| 1777645616 | 15.56° C | 53% | 1015.8 hPa | 0 mm | - | 683 W/m² | - |
| 1777645312 | 15° C | 55% | 1015.8 hPa | 0 mm | - | 665 W/m² | - |
| 1777645008 | 15° C | 57% | 1015.4 hPa | 0 mm | - | 658 W/m² | - |
| 1777644706 | 14.44° C | 57% | 1015.6 hPa | 0 mm | - | 327 W/m² | - |
| 1777644402 | 14.44° C | 58% | 1015.6 hPa | 0 mm | - | 307 W/m² | - |
| 1777644099 | 13.89° C | 61% | 1015.4 hPa | 0 mm | - | 297 W/m² | - |
| 1777643795 | 14.44° C | 59% | 1015.6 hPa | 0 mm | - | 233 W/m² | - |
| 1777643493 | 13.89° C | 62% | 1015.6 hPa | 0 mm | - | 235 W/m² | - |
| 1777642886 | 13.89° C | 61% | 1015.5 hPa | 0 mm | - | 208 W/m² | - |
* Rain latest hour (hover to see other rain measurements)
** Current wind speed in m/s (hover to see current wind gust speed)